Página principal
METAR-TAF:

METAR-TAF

Aeroportos :

Guilin, China

Aeroporto Internacional de Guilin Liangjiang

latitude: 25-20N, longitude: 110-18E, altura: 166 m

Observação actual do tempo

O boletim foi feito há 39 minutos, às 01:00 UTC
Vento calmo
Temperatura 18°C
Humidade 88%
Pressão 1020 hPa
Visibilidade: 5000 m
Encobertoa uma altura de 4000 ft
neblina

METAR: ZGKL 180100Z 00000MPS 5000 BR OVC040 18/16 Q1020 NOSIG

Hora: 09:39 (01:39 UTC)

Previsão

O boletim foi feito há 6 horas e 23 minutos, às 19:16 UTC
Previsão válida de 18 às 00 UTC a 18 às 24 UTC
Vento 8 kt de nordeste
Visibilidade: 4000 m
Poucas nuvensa uma altura de 600 ft
Nuvens dispersasa uma altura de 2000 ft
Encobertoa uma altura de 4000 ft
chuva fraca, neblina

TAF: ZGKL 171916Z 1800/1824 05004MPS 4000 -RA BR FEW006 SCT020 OVC040 TX20/1807Z TN15/1822Z

Observações e previsões do tempo de mais de 4000 aeroportos (mensagens METAR e TAF).

As estações disponíveis são os pontos amarelos e vermelhos sobre o mapa.

Mova o rato sobre o mapa para ver o nome da estação.

Depois clique no ponto para visualizar as observações e previsões meteorológicas.

Para alterar o mapa : clique nos botões verdes com uma cruz preta para aumentar o zoom; no botão verde com uma pitada de zoom; ou nas setas verdes para mapas adjacentes.


METAR-TAF: